Time;durP1;ratioP1;P1;durP2;ratioP2;P2;SDS_P1;SDS_P2;PMS_P1;PMS_P2;Temp;Humidity;BMP_temperature;BMP_pressure;BME280_temperature;BME280_humidity;BME280_pressure;Samples;Min_cycle;Max_cycle;Signal;HPM_P1;HPM_P2
2022/08/31 00:06:07;;;;;;;9.73;8.05;;;;;;;14.94;85.67;98235.83;1816606;79;20966;-60
2022/08/31 00:08:34;;;;;;;9.75;7.95;;;;;;;14.92;85.73;98240.74;1816405;79;20916;-59
2022/08/31 00:11:00;;;;;;;9.55;7.35;;;;;;;14.86;85.81;98235.23;1816402;79;20856;-60
2022/08/31 00:13:29;;;;;;;11.20;8.28;;;;;;;14.81;85.83;98234.59;1816508;79;20947;-61
2022/08/31 00:15:55;;;;;;;10.03;7.55;;;;;;;14.79;85.81;98229.49;1816538;79;21220;-61
2022/08/31 00:18:23;;;;;;;11.08;7.78;;;;;;;14.77;85.70;98234.41;1816450;79;20868;-59
2022/08/31 00:20:50;;;;;;;13.43;8.05;;;;;;;14.75;85.65;98229.88;1816616;79;21454;-60
2022/08/31 00:23:16;;;;;;;11.12;7.47;;;;;;;14.73;85.65;98236.14;1816884;79;21524;-59
2022/08/31 00:25:45;;;;;;;9.28;7.87;;;;;;;14.69;85.63;98233.83;1816515;79;21347;-59
2022/08/31 00:28:12;;;;;;;11.18;8.73;;;;;;;14.62;85.84;98229.44;1816399;79;21204;-61
2022/08/31 00:30:39;;;;;;;11.70;8.30;;;;;;;14.58;86.09;98225.75;1816338;79;20919;-61
2022/08/31 00:33:06;;;;;;;11.30;7.75;;;;;;;14.53;86.33;98222.42;1816481;79;21244;-61
2022/08/31 00:35:35;;;;;;;8.90;7.45;;;;;;;14.51;86.49;98229.45;1816383;79;20876;-60
2022/08/31 00:38:03;;;;;;;10.60;7.78;;;;;;;14.48;86.89;98222.55;1816519;79;20987;-59
2022/08/31 00:40:31;;;;;;;11.00;7.90;;;;;;;14.44;87.14;98218.31;1816400;79;21233;-61
2022/08/31 00:42:58;;;;;;;10.72;7.90;;;;;;;14.42;87.41;98213.78;1816509;79;21498;-62
2022/08/31 00:45:25;;;;;;;10.03;7.70;;;;;;;14.44;87.44;98212.15;1816387;79;20915;-60
2022/08/31 00:47:52;;;;;;;10.40;7.30;;;;;;;14.41;87.42;98214.91;1816550;78;20935;-59
2022/08/31 00:50:21;;;;;;;9.50;7.05;;;;;;;14.42;87.45;98216.48;1816399;79;20928;-60
2022/08/31 00:52:55;;;;;;;9.68;6.67;;;;;;;14.42;87.37;98220.52;1816366;79;21225;-61
2022/08/31 00:55:34;;;;;;;9.20;6.85;;;;;;;14.41;87.45;98212.22;1816454;78;21387;-59
2022/08/31 00:58:05;;;;;;;9.68;7.15;;;;;;;14.39;87.50;98214.39;1816496;79;20939;-60
2022/08/31 01:00:32;;;;;;;9.98;7.20;;;;;;;14.38;87.50;98215.52;1816667;79;20927;-61
2022/08/31 01:03:00;;;;;;;8.68;7.08;;;;;;;14.40;87.41;98217.34;1816454;79;20931;-61
2022/08/31 01:05:28;;;;;;;9.43;7.25;;;;;;;14.38;87.26;98212.83;1816359;79;21265;-60
2022/08/31 01:07:54;;;;;;;9.90;7.15;;;;;;;14.31;87.14;98210.58;1816634;79;21372;-62
2022/08/31 01:10:22;;;;;;;9.25;6.95;;;;;;;14.25;87.19;98212.31;1816473;79;20962;-60
2022/08/31 01:12:51;;;;;;;8.40;6.37;;;;;;;14.22;87.14;98215.09;1816330;79;20919;-60
2022/08/31 01:15:17;;;;;;;12.70;7.37;;;;;;;14.21;87.01;98216.73;1816598;79;21493;-60
2022/08/31 01:17:45;;;;;;;7.90;6.50;;;;;;;14.15;86.98;98213.94;1816679;79;21933;-61
2022/08/31 01:20:47;;;;;;;9.60;6.62;;;;;;;14.13;86.97;98214.80;1787511;79;20899;-60
2022/08/31 01:23:24;;;;;;;8.63;6.15;;;;;;;14.11;86.90;98218.32;1816678;79;21367;-61
2022/08/31 01:25:52;;;;;;;8.65;6.30;;;;;;;14.09;86.87;98212.45;1816469;79;20896;-60
2022/08/31 01:28:19;;;;;;;7.85;5.85;;;;;;;14.06;86.92;98213.86;1787426;79;20939;-60
2022/08/31 01:31:06;;;;;;;9.70;6.85;;;;;;;14.04;86.94;98216.61;1816452;79;21470;-60
2022/08/31 01:33:35;;;;;;;7.17;6.17;;;;;;;14.01;87.01;98223.98;1797786;79;20915;-59
2022/08/31 01:36:06;;;;;;;9.05;6.40;;;;;;;13.99;86.95;98221.57;1816756;79;20868;-60
2022/08/31 01:38:35;;;;;;;8.68;6.42;;;;;;;13.98;87.18;98219.20;1816329;79;20930;-59
2022/08/31 01:41:01;;;;;;;9.50;5.90;;;;;;;14.01;88.39;98219.94;1816355;79;20915;-63
2022/08/31 01:43:32;;;;;;;7.50;5.72;;;;;;;14.04;89.14;98211.22;1816305;79;21118;-60
2022/08/31 01:46:07;;;;;;;7.37;6.00;;;;;;;14.10;89.38;98207.32;1816541;79;20988;-59
2022/08/31 01:48:34;;;;;;;8.65;6.00;;;;;;;14.13;89.03;98213.45;1815809;78;20876;-60
2022/08/31 01:51:03;;;;;;;8.35;6.05;;;;;;;14.16;88.57;98215.50;1815738;79;20856;-61
2022/08/31 01:53:30;;;;;;;7.75;6.20;;;;;;;14.18;88.32;98210.60;1815779;79;20927;-61
2022/08/31 01:55:57;;;;;;;9.28;6.80;;;;;;;14.19;87.86;98214.90;1815762;79;21112;-61
2022/08/31 01:58:24;;;;;;;7.55;6.70;;;;;;;14.17;87.30;98218.45;1815698;79;20840;-59
2022/08/31 02:00:50;;;;;;;9.18;6.28;;;;;;;14.14;86.88;98217.72;1815769;79;20929;-60
2022/08/31 02:03:17;;;;;;;6.80;5.85;;;;;;;14.12;86.72;98215.34;1816012;79;21501;-59
2022/08/31 02:05:44;;;;;;;8.43;6.10;;;;;;;14.10;86.65;98210.02;1815882;79;20864;-59
2022/08/31 02:08:11;;;;;;;7.50;6.03;;;;;;;14.07;86.56;98210.62;1815859;79;21769;-61
2022/08/31 02:10:38;;;;;;;9.95;6.20;;;;;;;14.07;86.72;98210.08;1793104;79;20935;-61
2022/08/31 02:13:05;;;;;;;8.23;6.42;;;;;;;14.10;86.99;98214.05;1793303;79;21422;-61
2022/08/31 02:15:33;;;;;;;9.48;6.30;;;;;;;14.13;87.35;98208.06;1815648;78;21450;-62
2022/08/31 02:18:00;;;;;;;6.78;5.22;;;;;;;14.17;88.21;98219.80;1815965;79;21462;-61
2022/08/31 02:20:27;;;;;;;9.30;5.65;;;;;;;14.21;88.82;98211.34;1815916;79;21118;-61
2022/08/31 02:22:53;;;;;;;7.50;6.10;;;;;;;14.25;88.45;98216.34;1815640;79;20840;-62
2022/08/31 02:25:20;;;;;;;8.35;5.47;;;;;;;14.24;87.83;98204.00;1815843;79;20990;-60
2022/08/31 02:27:47;;;;;;;7.78;6.28;;;;;;;14.23;87.13;98206.44;1815816;79;20959;-60
2022/08/31 02:30:16;;;;;;;9.18;6.05;;;;;;;14.23;87.19;98209.13;1815865;79;20907;-61
2022/08/31 02:32:43;;;;;;;8.93;6.22;;;;;;;14.23;87.03;98210.48;1815779;79;21111;-59
2022/08/31 02:35:10;;;;;;;6.65;5.37;;;;;;;14.20;86.44;98216.50;1815862;79;21391;-60
2022/08/31 02:37:38;;;;;;;5.12;4.62;;;;;;;14.15;85.95;98217.97;1815732;79;20920;-61
2022/08/31 02:40:11;;;;;;;7.37;5.53;;;;;;;14.09;85.76;98212.45;1815821;79;20844;-62
2022/08/31 02:42:36;;;;;;;5.70;5.03;;;;;;;14.08;85.86;98213.02;1815610;79;20907;-61
2022/08/31 02:45:05;;;;;;;9.43;5.53;;;;;;;14.06;85.50;98211.16;1815677;79;21976;-59
2022/08/31 02:47:33;;;;;;;7.62;5.72;;;;;;;14.04;85.38;98211.22;1815579;79;20907;-60
2022/08/31 02:50:11;;;;;;;10.38;5.67;;;;;;;14.02;85.31;98212.89;1814653;78;20908;-61
2022/08/31 02:52:38;;;;;;;6.22;4.95;;;;;;;14.02;85.62;98212.09;1815785;79;21462;-61
2022/08/31 02:55:06;;;;;;;7.05;5.00;;;;;;;13.99;85.45;98210.03;1815781;79;20880;-61
2022/08/31 02:57:34;;;;;;;5.53;4.37;;;;;;;13.98;85.68;98212.47;1815908;79;21391;-61
2022/08/31 03:00:01;;;;;;;11.90;5.50;;;;;;;14.00;86.28;98214.30;1815844;79;20996;-60
2022/08/31 03:02:28;;;;;;;6.30;5.62;;;;;;;14.08;87.87;98210.87;1815869;79;20920;-61
2022/08/31 03:04:54;;;;;;;13.50;5.50;;;;;;;14.20;89.95;98213.81;1815994;79;20939;-60
2022/08/31 03:07:21;;;;;;;6.92;5.25;;;;;;;14.31;91.42;98209.23;1815921;79;20836;-60
2022/08/31 03:09:48;;;;;;;8.23;5.10;;;;;;;14.44;92.34;98211.58;1815888;79;21122;-62
2022/08/31 03:12:17;;;;;;;7.17;5.60;;;;;;;14.56;92.99;98215.03;1815939;79;20872;-60
2022/08/31 03:14:43;;;;;;;7.03;5.50;;;;;;;14.66;93.59;98215.58;1815882;79;20923;-60
2022/08/31 03:17:10;;;;;;;10.40;5.78;;;;;;;14.75;93.71;98216.40;1815876;79;20920;-59
2022/08/31 03:19:38;;;;;;;5.97;5.22;;;;;;;14.86;93.89;98213.66;1815888;79;20931;-60
2022/08/31 03:22:05;;;;;;;8.10;5.22;;;;;;;14.94;93.88;98213.45;1815969;79;21214;-61
2022/08/31 03:24:31;;;;;;;6.50;4.78;;;;;;;15.00;93.85;98212.98;1815827;79;20900;-60
2022/08/31 03:26:58;;;;;;;9.18;5.60;;;;;;;15.05;93.91;98210.15;1815982;79;21032;-61
2022/08/31 03:29:25;;;;;;;5.90;4.80;;;;;;;15.10;93.76;98215.18;1816085;79;21398;-61
2022/08/31 03:31:53;;;;;;;7.20;5.67;;;;;;;15.13;93.66;98217.23;1813131;78;20832;-61
2022/08/31 03:34:20;;;;;;;6.08;5.03;;;;;;;15.11;93.56;98217.55;1815868;79;21238;-61
2022/08/31 03:36:47;;;;;;;7.80;4.60;;;;;;;15.10;93.55;98220.58;1815799;79;20962;-61
2022/08/31 03:39:14;;;;;;;7.05;5.28;;;;;;;15.04;93.54;98215.32;1815862;79;20903;-60
2022/08/31 03:41:40;;;;;;;7.87;5.47;;;;;;;15.00;93.64;98214.34;1815869;79;20912;-59
2022/08/31 03:44:07;;;;;;;7.03;5.50;;;;;;;14.94;93.77;98214.25;1815852;79;20943;-61
2022/08/31 03:46:34;;;;;;;6.25;5.30;;;;;;;14.90;93.94;98217.34;1815874;79;21156;-60
2022/08/31 03:49:01;;;;;;;8.98;5.08;;;;;;;14.87;94.05;98223.35;1806555;79;21475;-62
2022/08/31 03:51:28;;;;;;;6.42;4.90;;;;;;;14.85;94.17;98224.77;1805588;79;20955;-61
2022/08/31 03:53:56;;;;;;;7.22;5.15;;;;;;;14.81;94.51;98224.61;1805589;79;20876;-61
2022/08/31 03:56:22;;;;;;;5.75;5.12;;;;;;;14.82;94.59;98224.03;1805724;79;20904;-60
2022/08/31 03:58:49;;;;;;;7.05;5.08;;;;;;;14.81;94.63;98228.66;1805917;79;21871;-62
2022/08/31 04:01:36;;;;;;;5.83;5.08;;;;;;;14.83;94.65;98225.64;1770707;80;20885;-60
2022/08/31 04:04:21;;;;;;;5.67;4.65;;;;;;;14.79;95.03;98226.80;1749347;81;20983;-61
2022/08/31 04:06:52;;;;;;;9.30;5.10;;;;;;;14.79;95.03;98226.80;1756282;79;20967;-61
2022/08/31 04:09:30;;;;;;;6.95;5.30;;;;;;;14.83;95.22;98225.09;1801671;79;20970;-61
2022/08/31 04:11:59;;;;;;;7.08;5.83;;;;;;;14.88;95.26;98222.80;1793392;79;22077;-61
2022/08/31 04:14:33;;;;;;;8.33;5.42;;;;;;;14.91;95.27;98227.00;1795978;79;20991;-59
2022/08/31 04:17:19;;;;;;;;;;;;;;;14.98;95.27;98220.60;1808407;79;20916;-59
2022/08/31 04:19:47;;;;;;;9.05;5.33;;;;;;;15.04;95.19;98220.72;1805696;79;20400;-60
2022/08/31 04:22:15;;;;;;;6.50;5.10;;;;;;;15.11;95.20;98222.15;1805294;79;20833;-60
2022/08/31 04:24:45;;;;;;;6.75;5.03;;;;;;;15.16;95.09;98217.41;1803328;79;21284;-58
2022/08/31 04:27:11;;;;;;;8.58;4.80;;;;;;;15.24;94.98;98226.06;1805506;79;20869;-60
2022/08/31 04:29:38;;;;;;;5.67;4.90;;;;;;;15.30;94.72;98230.22;1805870;79;21487;-59
2022/08/31 04:32:05;;;;;;;5.90;4.78;;;;;;;15.34;94.56;98231.17;1805660;79;20920;-58
2022/08/31 04:34:32;;;;;;;6.97;4.60;;;;;;;15.37;94.38;98221.10;1805584;79;20884;-59
2022/08/31 04:37:00;;;;;;;4.92;4.25;;;;;;;15.41;94.36;98217.20;1815367;78;21118;-59
2022/08/31 04:39:27;;;;;;;7.50;4.35;;;;;;;15.42;94.12;98217.45;1838385;78;20963;-59
2022/08/31 04:41:54;;;;;;;4.92;3.92;;;;;;;15.42;94.02;98220.16;1808758;78;20979;-59
2022/08/31 04:44:21;;;;;;;4.83;3.95;;;;;;;15.41;94.02;98223.40;1804619;79;21048;-59
2022/08/31 04:46:49;;;;;;;5.45;4.53;;;;;;;15.39;94.08;98229.67;1803144;79;21591;-60
2022/08/31 04:49:16;;;;;;;4.40;3.95;;;;;;;15.41;94.16;98226.65;1773787;80;21343;-60
2022/08/31 04:51:43;;;;;;;4.78;3.85;;;;;;;15.44;94.11;98228.72;1753965;80;20920;-59
2022/08/31 04:54:11;;;;;;;5.17;4.15;;;;;;;15.44;94.01;98230.08;1744141;82;21020;-60
2022/08/31 04:56:42;;;;;;;6.22;4.50;;;;;;;15.44;93.97;98233.61;1776931;80;20908;-60
2022/08/31 04:59:12;;;;;;;6.80;4.20;;;;;;;15.45;93.79;98231.70;1744265;82;20909;-60
2022/08/31 05:01:44;;;;;;;5.28;4.05;;;;;;;15.43;93.76;98238.72;1775731;80;21671;-61
2022/08/31 05:04:28;;;;;;;5.70;4.08;;;;;;;15.46;93.80;98235.43;1744058;82;21421;-62
2022/08/31 05:06:55;;;;;;;5.92;4.33;;;;;;;15.51;93.84;98242.58;1776348;80;21201;-61
2022/08/31 05:09:23;;;;;;;5.97;4.10;;;;;;;15.55;93.88;98236.23;1744192;82;20952;-60
2022/08/31 05:11:52;;;;;;;5.35;3.92;;;;;;;15.62;93.85;98236.55;1776137;80;21035;-61
2022/08/31 05:14:45;;;;;;;6.80;4.22;;;;;;;15.67;93.55;98232.35;1789016;80;20995;-61
2022/08/31 05:17:15;;;;;;;4.60;4.10;;;;;;;15.73;93.40;98230.30;1773763;80;20877;-60
2022/08/31 05:19:42;;;;;;;6.15;4.08;;;;;;;15.78;93.33;98228.77;1775733;80;20869;-61
2022/08/31 05:22:11;;;;;;;9.23;4.05;;;;;;;15.81;92.96;98233.54;1775760;80;20862;-60
2022/08/31 05:24:37;;;;;;;4.62;3.90;;;;;;;15.81;92.78;98238.14;1775671;80;20892;-61
2022/08/31 05:27:04;;;;;;;5.20;3.77;;;;;;;15.79;92.82;98230.37;1775754;80;21354;-59
2022/08/31 05:29:32;;;;;;;4.72;3.60;;;;;;;15.78;92.97;98231.47;1775606;80;20897;-60
2022/08/31 05:32:04;;;;;;;5.28;3.55;;;;;;;15.81;93.07;98224.09;1759350;80;21447;-62
2022/08/31 05:34:30;;;;;;;4.47;3.55;;;;;;;15.90;93.32;98226.22;1775676;80;20963;-59
2022/08/31 05:37:03;;;;;;;5.75;3.72;;;;;;;16.05;93.27;98233.85;1745207;80;21066;-60
2022/08/31 05:39:32;;;;;;;5.08;3.70;;;;;;;16.20;92.83;98228.52;1774330;80;21495;-58
2022/08/31 05:41:58;;;;;;;5.45;3.80;;;;;;;16.32;92.21;98225.95;1758288;80;20959;-59
2022/08/31 05:44:25;;;;;;;9.40;4.08;;;;;;;16.43;91.99;98225.28;1771626;80;21208;-61
2022/08/31 05:46:52;;;;;;;5.08;3.90;;;;;;;16.51;91.22;98228.29;1774244;80;21041;-58
2022/08/31 05:49:19;;;;;;;6.00;4.30;;;;;;;16.50;90.51;98226.14;1769815;80;21071;-62
2022/08/31 05:51:46;;;;;;;7.40;4.78;;;;;;;16.48;90.52;98228.92;1755738;80;21232;-64
2022/08/31 05:54:13;;;;;;;5.15;4.58;;;;;;;16.46;90.28;98224.41;1752096;81;21010;-62
2022/08/31 05:56:40;;;;;;;4.75;4.25;;;;;;;16.50;90.49;98230.19;1755005;81;21015;-61
2022/08/31 05:59:08;;;;;;;8.43;3.85;;;;;;;16.63;90.53;98240.03;1755621;81;20987;-60
2022/08/31 06:01:38;;;;;;;5.53;4.70;;;;;;;16.78;89.97;98236.01;1743213;81;20953;-61
2022/08/31 06:04:13;;;;;;;7.95;5.00;;;;;;;16.92;89.37;98237.94;1750154;81;21139;-59
2022/08/31 06:06:41;;;;;;;7.35;5.37;;;;;;;17.02;88.91;98243.80;1755475;81;20889;-61
2022/08/31 06:09:10;;;;;;;7.33;4.67;;;;;;;17.10;88.72;98243.49;1746426;82;20928;-59
2022/08/31 06:11:38;;;;;;;6.15;4.70;;;;;;;17.18;88.30;98241.31;1755557;81;20971;-60
2022/08/31 06:14:05;;;;;;;7.50;4.30;;;;;;;17.24;87.70;98250.82;1743652;82;21031;-59
2022/08/31 06:16:32;;;;;;;6.85;4.50;;;;;;;17.25;87.34;98245.66;1762056;81;21208;-60
2022/08/31 06:19:02;;;;;;;6.62;4.58;;;;;;;17.20;87.26;98235.56;1762268;81;20895;-61
2022/08/31 06:21:30;;;;;;;6.72;4.85;;;;;;;17.21;87.37;98229.05;1762565;81;21047;-60
2022/08/31 06:23:58;;;;;;;7.67;4.50;;;;;;;17.24;87.49;98231.88;1755541;81;21058;-61
2022/08/31 06:26:29;;;;;;;5.47;4.08;;;;;;;17.32;87.34;98236.45;1754557;81;21060;-61
2022/08/31 06:29:00;;;;;;;9.55;3.45;;;;;;;17.38;87.16;98238.42;1753943;81;21266;-61
2022/08/31 06:31:32;;;;;;;5.78;3.83;;;;;;;17.42;86.84;98233.37;1747581;81;21759;-61
2022/08/31 06:34:00;;;;;;;7.22;3.40;;;;;;;17.47;86.54;98234.55;1753731;81;21002;-61
2022/08/31 06:36:47;;;;;;;7.45;3.42;;;;;;;17.54;86.72;98237.55;1759813;81;21091;-61
2022/08/31 06:39:33;;;;;;;6.58;3.22;;;;;;;17.67;86.30;98242.46;1750768;81;21669;-61
2022/08/31 06:42:17;;;;;;;5.80;3.40;;;;;;;17.72;85.78;98238.20;1755048;81;40031;-58
2022/08/31 06:44:49;;;;;;;4.97;3.00;;;;;;;17.76;85.29;98241.27;1761901;80;21038;-61
2022/08/31 06:47:18;;;;;;;6.55;3.15;;;;;;;17.82;85.24;98241.08;1769982;80;21043;-59
2022/08/31 06:49:45;;;;;;;8.93;3.40;;;;;;;17.89;84.64;98244.85;1773269;80;21071;-61
2022/08/31 06:52:13;;;;;;;10.55;3.70;;;;;;;17.92;84.38;98239.33;1759971;80;21148;-60
2022/08/31 06:54:41;;;;;;;10.98;6.85;;;;;;;18.05;84.34;98247.73;1750526;80;21230;-61
2022/08/31 06:57:22;;;;;;;15.88;9.63;;;;;;;18.23;83.70;98247.24;1696708;80;21022;-59
2022/08/31 07:00:08;;;;;;;16.55;9.25;;;;;;;18.38;82.87;98243.91;1742185;81;22220;-59
2022/08/31 07:02:37;;;;;;;10.23;7.05;;;;;;;18.48;82.79;98254.94;1772396;80;21062;-61
2022/08/31 07:05:04;;;;;;;6.97;5.42;;;;;;;18.52;81.97;98251.78;1754816;81;21107;-62
2022/08/31 07:07:32;;;;;;;8.18;5.83;;;;;;;18.58;81.72;98242.31;1750155;81;21120;-60
2022/08/31 07:10:07;;;;;;;10.10;6.33;;;;;;;18.65;80.99;98241.20;1751299;81;21586;-62
2022/08/31 07:12:34;;;;;;;8.70;4.53;;;;;;;18.76;81.15;98239.63;1750357;81;21520;-63
2022/08/31 07:15:01;;;;;;;4.58;3.50;;;;;;;18.87;79.61;98250.26;1708650;81;21512;-60
2022/08/31 07:17:29;;;;;;;6.90;3.58;;;;;;;18.81;78.65;98242.13;1743492;81;21124;-62
2022/08/31 07:19:56;;;;;;;5.97;3.45;;;;;;;18.79;78.86;98245.74;1723620;81;21462;-61
2022/08/31 07:22:22;;;;;;;3.92;2.58;;;;;;;18.81;78.87;98240.77;1733378;82;21063;-58
2022/08/31 07:24:51;;;;;;;5.40;2.80;;;;;;;18.78;77.88;98242.78;1735453;82;20945;-59
2022/08/31 07:27:18;;;;;;;4.25;2.15;;;;;;;18.70;78.30;98242.31;1726972;82;21082;-62
2022/08/31 07:29:56;;;;;;;5.33;2.72;;;;;;;18.67;77.83;98236.78;1736652;82;21122;-61
2022/08/31 07:32:24;;;;;;;6.20;2.87;;;;;;;18.68;78.39;98234.28;1732504;82;21238;-60
2022/08/31 07:34:51;;;;;;;4.55;2.50;;;;;;;18.79;78.53;98244.39;1720846;82;21089;-60
2022/08/31 07:42:58;;;;;;;6.60;2.55;;;;;;;18.90;76.90;98241.45;1753344;81;21497;-59
2022/08/31 07:45:25;;;;;;;4.08;2.65;;;;;;;19.02;76.16;98244.17;1705028;82;21728;-62
2022/08/31 07:47:53;;;;;;;4.55;1.98;;;;;;;19.24;76.50;98246.21;1703920;82;21154;-59
2022/08/31 07:50:22;;;;;;;3.10;2.50;;;;;;;19.51;74.54;98245.52;1723557;82;21019;-63
2022/08/31 07:53:10;;;;;;;3.83;2.20;;;;;;;19.68;74.02;98250.15;1740763;81;21083;-61
2022/08/31 07:55:44;;;;;;;3.45;2.05;;;;;;;19.73;73.41;98245.04;1738127;81;21134;-59
2022/08/31 07:58:14;;;;;;;3.17;1.87;;;;;;;19.69;73.29;98246.84;1735679;81;21416;-60
2022/08/31 08:00:41;;;;;;;4.90;2.00;;;;;;;19.65;73.00;98248.11;1751219;82;21435;-59
2022/08/31 08:03:10;;;;;;;7.85;3.35;;;;;;;19.75;72.43;98250.92;1744652;81;20944;-62
2022/08/31 08:05:50;;;;;;;4.10;2.33;;;;;;;19.74;71.45;98247.96;1750219;81;20976;-59
2022/08/31 08:08:23;;;;;;;3.47;2.47;;;;;;;19.68;71.94;98248.79;1729307;82;21478;-59
2022/08/31 08:11:01;;;;;;;4.22;3.02;;;;;;;19.67;71.86;98247.75;1727827;82;21177;-62
2022/08/31 08:13:46;;;;;;;3.10;2.50;;;;;;;19.59;72.42;98252.77;1729716;81;21106;-60
2022/08/31 08:16:23;;;;;;;7.25;3.12;;;;;;;19.58;72.99;98257.97;1760599;80;21061;-59
2022/08/31 08:18:56;;;;;;;6.00;2.95;;;;;;;19.56;72.75;98259.67;1733016;80;21047;-63
2022/08/31 08:21:27;;;;;;;4.58;2.20;;;;;;;19.54;72.52;98257.08;1721455;82;21042;-59
2022/08/31 08:24:00;;;;;;;3.65;2.20;;;;;;;19.46;72.77;98259.33;1735592;81;21959;-60
2022/08/31 08:26:56;;;;;;;5.78;2.20;;;;;;;19.44;71.65;98256.17;1711240;81;20967;-61
2022/08/31 08:29:38;;;;;;;4.90;2.40;;;;;;;19.47;71.84;98260.93;1777567;80;21051;-59
2022/08/31 08:32:07;;;;;;;2.67;2.10;;;;;;;19.62;71.92;98255.58;1773795;80;20976;-61
2022/08/31 08:34:35;;;;;;;6.90;2.00;;;;;;;19.73;71.38;98266.78;1779226;80;21035;-60
2022/08/31 08:37:07;;;;;;;9.43;3.22;;;;;;;19.81;70.20;98265.84;1768975;80;21083;-62
2022/08/31 08:39:36;;;;;;;3.20;2.12;;;;;;;19.81;68.56;98261.77;1778811;80;21384;-64
2022/08/31 08:42:18;;;;;;;6.28;2.45;;;;;;;19.91;69.18;98266.73;1778009;80;20876;-60
2022/08/31 08:44:51;;;;;;;6.17;2.47;;;;;;;20.11;69.82;98258.97;1773516;80;21007;-60
2022/08/31 08:47:27;;;;;;;2.95;2.02;;;;;;;20.36;67.48;98260.48;1738844;81;21079;-59
2022/08/31 08:50:04;;;;;;;2.90;2.10;;;;;;;20.43;66.28;98258.52;1747545;81;21043;-64
2022/08/31 08:52:43;;;;;;;3.12;1.80;;;;;;;20.36;65.91;98257.75;1753882;81;21108;-64
2022/08/31 08:55:21;;;;;;;2.10;1.52;;;;;;;20.25;66.03;98260.77;1750138;81;21030;-64
2022/08/31 08:57:54;;;;;;;2.35;1.40;;;;;;;20.21;66.62;98254.38;1754386;81;20931;-63
2022/08/31 09:00:28;;;;;;;2.12;1.30;;;;;;;20.31;65.45;98264.00;1737040;80;21101;-61
2022/08/31 09:03:45;;;;;;;2.77;1.22;;;;;;;20.30;62.89;98261.84;1713326;81;21258;-63
2022/08/31 09:06:52;;;;;;;1.60;1.20;;;;;;;20.25;63.33;98268.92;1733961;81;21178;-61
2022/08/31 09:09:39;;;;;;;1.67;1.22;;;;;;;20.27;62.80;98268.00;1752368;80;21009;-61
2022/08/31 09:12:34;;;;;;;3.02;1.10;;;;;;;20.40;62.50;98267.36;1748034;80;21074;-60
2022/08/31 09:15:20;;;;;;;2.45;1.50;;;;;;;20.43;60.57;98270.19;1768456;80;20910;-61
2022/08/31 09:18:05;;;;;;;2.10;1.47;;;;;;;20.48;59.32;98265.63;1737227;81;21250;-60
2022/08/31 09:20:32;;;;;;;3.00;1.70;;;;;;;20.32;61.46;98273.20;1726250;81;21045;-61
2022/08/31 09:22:59;;;;;;;2.80;1.50;;;;;;;20.32;61.46;98273.20;1751458;81;20877;-61
2022/08/31 09:25:31;;;;;;;3.40;1.47;;;;;;;20.31;62.24;98278.41;1767830;80;20943;-63
2022/08/31 09:28:15;;;;;;;6.72;1.20;;;;;;;20.45;61.88;98278.80;1770890;80;21474;-62
2022/08/31 09:30:51;;;;;;;5.45;1.20;;;;;;;20.65;58.96;98280.28;1772995;80;21137;-62
2022/08/31 09:33:30;;;;;;;3.55;1.30;;;;;;;20.76;58.38;98283.50;1764016;80;21011;-64
2022/08/31 09:36:24;;;;;;;4.97;1.27;;;;;;;20.91;57.62;98276.50;1701204;81;21277;-65
2022/08/31 09:38:51;;;;;;;6.65;1.22;;;;;;;21.14;57.39;98282.94;1742015;81;21041;-61
2022/08/31 09:41:32;;;;;;;2.75;1.15;;;;;;;21.33;53.51;98284.38;1761328;81;21496;-61
2022/08/31 09:44:31;;;;;;;3.47;1.20;;;;;;;21.23;53.36;98273.22;1744025;81;21242;-62
2022/08/31 09:47:04;;;;;;;2.25;1.47;;;;;;;21.09;53.73;98280.48;1752903;81;20978;-62
2022/08/31 09:49:37;;;;;;;4.58;1.42;;;;;;;20.93;51.48;98285.90;1750462;81;21019;-61
2022/08/31 09:55:13;;;;;;;2.60;1.40;;;;;;;20.70;49.77;98292.28;1758005;81;21006;-63
2022/08/31 09:58:01;;;;;;;2.05;1.20;;;;;;;20.68;50.40;98291.84;1746735;81;21269;-60
2022/08/31 10:00:42;;;;;;;7.20;1.70;;;;;;;20.62;48.88;98289.14;1748898;81;21048;-65
2022/08/31 10:03:19;;;;;;;2.35;1.15;;;;;;;20.50;48.92;98290.55;1758142;81;21090;-64
2022/08/31 10:05:48;;;;;;;2.87;1.30;;;;;;;20.44;49.84;98288.08;1725486;81;21512;-57
2022/08/31 10:08:56;;;;;;;1.72;1.37;;;;;;;20.52;49.56;98283.63;1762411;81;21733;-61
2022/08/31 10:11:19;;;;;;;4.30;1.72;;;;;;;20.52;48.60;98281.47;1740601;81;21634;-63
2022/08/31 10:13:53;;;;;;;2.08;1.35;;;;;;;20.42;49.68;98289.00;1747807;81;21375;-62
2022/08/31 10:16:30;;;;;;;1.98;1.25;;;;;;;20.37;50.57;98285.75;1751152;81;21064;-63
2022/08/31 10:19:06;;;;;;;4.40;1.60;;;;;;;20.44;51.38;98284.59;1738770;81;20999;-60
2022/08/31 10:21:53;;;;;;;2.67;1.70;;;;;;;20.58;51.99;98280.09;1747554;81;20876;-59
2022/08/31 10:24:45;;;;;;;5.12;1.70;;;;;;;20.70;51.11;98278.67;1751069;81;21253;-61
2022/08/31 10:27:30;;;;;;;4.95;2.00;;;;;;;20.77;52.50;98281.02;1749596;81;21388;-60
2022/08/31 10:30:04;;;;;;;5.45;2.35;;;;;;;20.95;51.07;98278.73;1738130;81;21010;-59
2022/08/31 10:32:44;;;;;;;3.55;1.90;;;;;;;20.92;52.73;98282.15;1739740;81;21080;-59
2022/08/31 10:35:22;;;;;;;9.18;2.62;;;;;;;21.04;53.04;98281.53;1745384;81;21084;-60
2022/08/31 10:38:19;;;;;;;3.00;2.08;;;;;;;21.16;53.51;98277.93;1742409;81;21117;-57
2022/08/31 10:40:52;;;;;;;4.35;2.20;;;;;;;21.38;52.99;98280.03;1745433;81;20970;-62
2022/08/31 10:43:22;;;;;;;3.60;2.37;;;;;;;21.54;53.26;98283.52;1746730;81;21543;-59
2022/08/31 10:45:52;;;;;;;6.53;2.58;;;;;;;21.71;52.15;98277.69;1746346;81;21125;-61
2022/08/31 10:48:22;;;;;;;5.67;2.62;;;;;;;21.83;52.77;98278.91;1739137;81;21170;-59
2022/08/31 10:50:54;;;;;;;4.70;2.77;;;;;;;21.98;52.36;98281.96;1741522;81;21096;-61
2022/08/31 10:53:51;;;;;;;6.62;3.00;;;;;;;21.99;53.13;98271.28;1734762;81;21072;-62
2022/08/31 10:56:26;;;;;;;4.72;2.83;;;;;;;22.00;53.09;98270.15;1740931;81;21039;-60
2022/08/31 10:58:58;;;;;;;4.33;2.40;;;;;;;21.98;53.76;98271.05;1747745;81;21041;-63
2022/08/31 11:01:57;;;;;;;5.22;2.40;;;;;;;21.91;52.52;98260.80;1731555;81;21076;-64
2022/08/31 11:05:04;;;;;;;2.83;2.00;;;;;;;21.65;52.77;98260.01;1745189;81;21208;-62
2022/08/31 11:08:06;;;;;;;4.10;1.70;;;;;;;21.59;54.06;98258.72;1692361;83;21126;-61
2022/08/31 11:10:51;;;;;;;4.55;1.42;;;;;;;21.86;51.97;98257.58;1680395;84;21168;-62
2022/08/31 11:14:13;;;;;;;3.35;1.85;;;;;;;21.94;50.86;98263.37;1724397;81;21077;-62
2022/08/31 11:16:53;;;;;;;3.27;1.85;;;;;;;21.97;51.89;98247.11;1734322;82;21080;-63
2022/08/31 11:20:03;;;;;;;5.08;1.70;;;;;;;22.05;52.41;98245.29;1718656;81;21044;-60
2022/08/31 11:23:09;;;;;;;4.35;2.15;;;;;;;22.12;50.16;98248.16;1735090;81;21030;-64
2022/08/31 11:26:34;;;;;;;4.70;1.72;;;;;;;21.97;50.88;98238.13;1696865;82;21014;-62
2022/08/31 11:29:32;;;;;;;3.45;1.57;;;;;;;22.10;50.45;98242.28;1750462;81;20981;-60
2022/08/31 11:32:14;;;;;;;2.92;1.62;;;;;;;22.12;49.62;98234.52;1764587;81;21067;-61
2022/08/31 11:34:52;;;;;;;5.90;1.65;;;;;;;22.11;48.78;98227.51;1752267;81;21117;-62
2022/08/31 11:37:51;;;;;;;4.12;1.50;;;;;;;22.08;49.57;98220.83;1741749;81;20996;-64
2022/08/31 11:40:42;;;;;;;4.75;1.50;;;;;;;22.10;48.95;98223.19;1760276;81;20982;-61
2022/08/31 11:43:34;;;;;;;1.87;1.50;;;;;;;22.25;48.90;98216.87;1758486;81;21027;-63
2022/08/31 11:46:27;;;;;;;2.22;1.20;;;;;;;22.33;49.44;98207.66;1750385;81;21453;-64
2022/08/31 11:48:57;;;;;;;3.80;1.35;;;;;;;22.65;49.23;98211.80;1753737;81;21125;-65
2022/08/31 11:51:46;;;;;;;3.55;1.70;;;;;;;;;;1743364;81;21520;-63
2022/08/31 11:54:32;;;;;;;4.78;1.70;;;;;;;23.35;48.26;98203.97;1700827;81;20941;-62
2022/08/31 11:56:56;;;;;;;4.85;1.85;;;;;;;23.52;47.73;98211.64;1751980;81;20949;-62
2022/08/31 11:59:30;;;;;;;5.87;1.72;;;;;;;23.52;46.90;98209.48;1764623;81;20965;-60
2022/08/31 12:02:00;;;;;;;5.92;1.60;;;;;;;23.50;47.49;98202.23;1743769;81;21191;-62
2022/08/31 12:04:50;;;;;;;3.67;1.50;;;;;;;23.61;45.85;98199.84;1745967;81;21519;-61
2022/08/31 12:07:35;;;;;;;2.35;1.40;;;;;;;23.77;45.75;98198.28;1749928;81;21472;-63
2022/08/31 12:10:29;;;;;;;2.33;1.30;;;;;;;24.10;45.17;98203.80;1746964;81;21095;-58
2022/08/31 12:13:29;;;;;;;4.55;1.20;;;;;;;23.91;43.72;98202.56;1753882;81;21111;-58
2022/08/31 12:16:28;;;;;;;5.70;1.20;;;;;;;23.32;44.36;98209.37;1750074;81;21256;-66
2022/08/31 12:19:23;;;;;;;;;;;;;;;;;;;;;